Time;durP1;ratioP1;P1;durP2;ratioP2;P2;SDS_P1;SDS_P2;PMS_P1;PMS_P2;Temp;Humidity;BMP_temperature;BMP_pressure;BME280_temperature;BME280_humidity;BME280_pressure;Samples;Min_cycle;Max_cycle;Signal;HPM_P1;HPM_P2
2021/09/18 00:01:11;;;;;;;10.77;9.25;;;;;;;;;;4994004;28;20081;-67
2021/09/18 00:03:38;;;;;;;11.52;9.25;;;;;;;;;;4993829;28;20092;-67
2021/09/18 00:06:05;;;;;;;10.35;9.30;;;;;;;;;;4993922;28;20050;-66
2021/09/18 00:08:31;;;;;;;9.93;8.95;;;;;;;;;;4993857;28;20108;-66
2021/09/18 00:10:58;;;;;;;11.07;8.82;;;;;;;;;;4993497;28;20057;-65
2021/09/18 00:13:25;;;;;;;11.18;9.57;;;;;;;;;;4993053;28;20449;-66
2021/09/18 00:15:51;;;;;;;11.43;9.70;;;;;;;;;;4993645;28;20062;-66
2021/09/18 00:18:18;;;;;;;10.75;9.65;;;;;;;;;;4993725;28;20097;-65
2021/09/18 00:20:44;;;;;;;11.52;10.32;;;;;;;;;;4993448;28;20042;-66
2021/09/18 00:23:11;;;;;;;10.25;9.00;;;;;;;;;;4993588;28;20125;-66
2021/09/18 00:25:38;;;;;;;12.15;9.43;;;;;;;;;;4993950;28;20073;-65
2021/09/18 00:28:04;;;;;;;10.15;9.05;;;;;;;;;;4993443;28;20469;-65
2021/09/18 00:30:31;;;;;;;12.27;9.13;;;;;;;;;;4993717;28;20046;-65
2021/09/18 00:32:58;;;;;;;10.90;9.20;;;;;;;;;;4993419;28;20327;-66
2021/09/18 00:35:24;;;;;;;11.45;8.77;;;;;;;;;;4993548;28;20062;-64
2021/09/18 00:37:51;;;;;;;9.73;8.55;;;;;;;;;;4993238;28;20101;-66
2021/09/18 00:40:18;;;;;;;11.18;8.48;;;;;;;;;;4993173;28;20050;-67
2021/09/18 00:42:44;;;;;;;12.68;8.80;;;;;;;;;;4993119;28;20510;-65
2021/09/18 00:45:11;;;;;;;10.93;8.10;;;;;;;;;;4993045;28;20050;-66
2021/09/18 00:47:38;;;;;;;8.77;7.93;;;;;;;;;;4993722;28;20050;-65
2021/09/18 00:50:05;;;;;;;10.23;8.02;;;;;;;;;;4992925;28;20108;-64
2021/09/18 00:52:32;;;;;;;10.32;8.50;;;;;;;;;;4993050;28;20050;-66
2021/09/18 00:54:59;;;;;;;9.52;8.52;;;;;;;;;;4992830;28;20109;-66
2021/09/18 00:57:26;;;;;;;10.90;8.23;;;;;;;;;;4975753;28;20057;-65
2021/09/18 00:59:52;;;;;;;9.52;8.40;;;;;;;;;;4975450;28;20170;-66
2021/09/18 01:02:19;;;;;;;11.60;9.00;;;;;;;;;;4992867;28;20460;-65
2021/09/18 01:04:46;;;;;;;11.10;8.73;;;;;;;;;;4992881;28;20540;-65
2021/09/18 01:07:13;;;;;;;10.10;8.82;;;;;;;;;;4975724;28;20050;-65
2021/09/18 01:09:39;;;;;;;10.18;9.15;;;;;;;;;;4975431;28;20061;-67
2021/09/18 01:12:06;;;;;;;11.18;9.25;;;;;;;;;;4975568;28;20054;-67
2021/09/18 01:14:33;;;;;;;9.73;8.27;;;;;;;;;;4992617;28;20050;-66
2021/09/18 01:17:00;;;;;;;12.15;8.85;;;;;;;;;;4992906;28;20125;-65
2021/09/18 01:19:27;;;;;;;10.65;9.20;;;;;;;;;;4992447;28;20046;-67
2021/09/18 01:21:53;;;;;;;10.27;9.18;;;;;;;;;;4992524;28;20573;-65
2021/09/18 01:24:20;;;;;;;10.93;8.95;;;;;;;;;;4958583;28;20437;-66
2021/09/18 01:26:47;;;;;;;10.52;8.30;;;;;;;;;;4992521;28;20072;-66
2021/09/18 01:29:14;;;;;;;11.35;9.05;;;;;;;;;;4992466;28;20050;-65
2021/09/18 01:31:42;;;;;;;13.75;8.68;;;;;;;;;;4992304;28;20054;-66
2021/09/18 01:34:10;;;;;;;11.65;10.52;;;;;;;;;;4992428;28;20224;-65
2021/09/18 01:36:37;;;;;;;10.82;8.98;;;;;;;;;;4975140;28;20078;-66
2021/09/18 01:39:04;;;;;;;13.32;9.45;;;;;;;;;;4992095;28;20497;-66
2021/09/18 01:41:31;;;;;;;10.50;9.25;;;;;;;;;;4974962;28;20530;-67
2021/09/18 01:43:59;;;;;;;10.93;8.70;;;;;;;;;;4992262;28;20101;-65
2021/09/18 01:46:26;;;;;;;9.40;8.43;;;;;;;;;;4992349;28;20141;-66
2021/09/18 01:48:53;;;;;;;12.48;10.07;;;;;;;;;;4992012;28;20106;-65
2021/09/18 01:51:19;;;;;;;13.02;9.07;;;;;;;;;;4992207;28;20050;-66
2021/09/18 01:53:46;;;;;;;11.93;8.40;;;;;;;;;;4992080;28;20136;-65
2021/09/18 01:56:13;;;;;;;10.82;8.32;;;;;;;;;;4992432;28;20050;-66
2021/09/18 01:58:40;;;;;;;9.27;8.32;;;;;;;;;;4991930;28;20050;-67
2021/09/18 02:01:06;;;;;;;10.13;7.88;;;;;;;;;;4992144;28;20093;-65
2021/09/18 02:03:34;;;;;;;11.27;8.40;;;;;;;;;;4992033;28;20088;-66
2021/09/18 02:06:02;;;;;;;9.48;7.97;;;;;;;;;;4992152;28;20137;-66
2021/09/18 02:08:28;;;;;;;12.40;8.20;;;;;;;;;;4992160;28;20050;-65
2021/09/18 02:10:56;;;;;;;10.10;8.27;;;;;;;;;;4991985;28;20048;-66
2021/09/18 02:13:23;;;;;;;9.98;8.15;;;;;;;;;;4992071;28;20047;-66
2021/09/18 02:15:50;;;;;;;10.95;8.80;;;;;;;;;;4992309;28;20244;-66
2021/09/18 02:18:17;;;;;;;11.50;8.45;;;;;;;;;;4992022;28;20423;-66
2021/09/18 02:20:44;;;;;;;10.57;9.20;;;;;;;;;;4991952;28;20062;-66
2021/09/18 02:23:12;;;;;;;9.27;8.05;;;;;;;;;;4992001;28;20057;-67
2021/09/18 02:25:39;;;;;;;12.75;8.45;;;;;;;;;;4991952;28;20100;-65
2021/09/18 02:28:06;;;;;;;8.75;7.82;;;;;;;;;;4992101;28;20050;-66
2021/09/18 02:30:34;;;;;;;9.30;7.68;;;;;;;;;;4991764;28;20054;-66
2021/09/18 02:33:01;;;;;;;10.40;8.70;;;;;;;;;;4991976;28;20125;-66
2021/09/18 02:35:28;;;;;;;11.55;8.18;;;;;;;;;;4992461;28;20133;-66
2021/09/18 02:37:55;;;;;;;9.65;8.60;;;;;;;;;;4995506;28;20096;-65
2021/09/18 02:40:24;;;;;;;13.07;8.02;;;;;;;;;;4995212;28;20057;-67
2021/09/18 02:42:52;;;;;;;12.15;7.38;;;;;;;;;;4995302;28;20050;-66
2021/09/18 02:45:19;;;;;;;8.40;7.55;;;;;;;;;;4995403;28;20046;-65
2021/09/18 02:47:47;;;;;;;10.73;7.72;;;;;;;;;;4995248;28;20137;-66
2021/09/18 02:50:15;;;;;;;8.52;7.70;;;;;;;;;;4995157;28;20042;-66
2021/09/18 02:52:42;;;;;;;7.78;7.07;;;;;;;;;;4995424;28;20096;-65
2021/09/18 02:55:09;;;;;;;9.18;7.55;;;;;;;;;;4995385;28;20054;-66
2021/09/18 02:57:36;;;;;;;8.98;7.75;;;;;;;;;;4995392;28;20047;-65
2021/09/18 03:00:04;;;;;;;8.15;7.32;;;;;;;;;;4994995;28;20054;-66
2021/09/18 03:02:31;;;;;;;10.43;6.90;;;;;;;;;;4994370;28;20058;-66
2021/09/18 03:04:58;;;;;;;9.70;7.60;;;;;;;;;;4994950;28;20061;-66
2021/09/18 03:07:27;;;;;;;8.10;7.05;;;;;;;;;;4994971;28;20056;-66
2021/09/18 03:09:54;;;;;;;10.02;7.30;;;;;;;;;;4994601;28;20050;-65
2021/09/18 03:12:20;;;;;;;9.48;7.55;;;;;;;;;;4994971;28;20050;-66
2021/09/18 03:14:47;;;;;;;7.38;6.68;;;;;;;;;;4994723;28;20512;-67
2021/09/18 03:17:14;;;;;;;11.48;8.63;;;;;;;;;;4994848;28;20065;-66
2021/09/18 03:19:41;;;;;;;8.50;7.63;;;;;;;;;;4994477;28;20050;-66
2021/09/18 03:22:07;;;;;;;9.77;7.60;;;;;;;;;;4994838;28;20399;-66
2021/09/18 03:24:34;;;;;;;9.70;7.32;;;;;;;;;;4994464;28;20449;-65
2021/09/18 03:27:01;;;;;;;7.90;7.15;;;;;;;;;;4994658;28;20050;-65
2021/09/18 03:29:27;;;;;;;8.23;7.43;;;;;;;;;;4994489;28;20133;-65
2021/09/18 03:31:54;;;;;;;8.40;7.57;;;;;;;;;;4994390;28;20050;-64
2021/09/18 03:34:21;;;;;;;8.75;7.90;;;;;;;;;;4994491;28;20054;-65
2021/09/18 03:36:48;;;;;;;11.63;7.28;;;;;;;;;;4994467;28;20062;-65
2021/09/18 03:39:15;;;;;;;11.02;7.63;;;;;;;;;;4994253;28;20080;-67
2021/09/18 03:41:42;;;;;;;10.55;7.20;;;;;;;;;;4994455;28;20050;-66
2021/09/18 03:44:08;;;;;;;10.27;7.80;;;;;;;;;;4994345;28;20046;-65
2021/09/18 03:46:35;;;;;;;9.30;7.82;;;;;;;;;;4993980;28;20051;-66
2021/09/18 03:49:02;;;;;;;11.50;7.53;;;;;;;;;;4993949;28;20057;-65
2021/09/18 03:51:28;;;;;;;10.23;7.32;;;;;;;;;;4994182;28;20046;-66
2021/09/18 03:53:55;;;;;;;9.50;7.95;;;;;;;;;;4994256;28;20050;-65
2021/09/18 03:56:22;;;;;;;10.35;8.13;;;;;;;;;;4994026;28;20050;-66
2021/09/18 03:58:48;;;;;;;9.48;7.80;;;;;;;;;;4993834;28;20058;-66
2021/09/18 04:01:15;;;;;;;9.52;7.53;;;;;;;;;;4993894;28;20050;-66
2021/09/18 04:03:42;;;;;;;13.65;9.65;;;;;;;;;;4993793;28;20159;-66
2021/09/18 04:06:09;;;;;;;15.07;9.77;;;;;;;;;;4994030;28;20077;-66
2021/09/18 04:08:35;;;;;;;11.00;9.10;;;;;;;;;;4993755;28;20065;-63
2021/09/18 04:11:02;;;;;;;9.20;8.18;;;;;;;;;;4993700;28;20418;-66
2021/09/18 04:13:29;;;;;;;9.23;8.10;;;;;;;;;;4993714;28;20129;-66
2021/09/18 04:15:55;;;;;;;13.02;8.45;;;;;;;;;;4993581;28;20061;-65
2021/09/18 04:18:22;;;;;;;10.27;8.02;;;;;;;;;;4993761;28;20493;-66
2021/09/18 04:20:49;;;;;;;9.98;8.27;;;;;;;;;;4993322;28;20130;-66
2021/09/18 04:23:15;;;;;;;10.63;9.52;;;;;;;;;;4993693;28;20125;-65
2021/09/18 04:25:42;;;;;;;10.15;8.63;;;;;;;;;;4993448;28;20054;-66
2021/09/18 04:28:09;;;;;;;10.98;8.30;;;;;;;;;;4993593;28;20058;-65
2021/09/18 04:30:35;;;;;;;10.48;8.02;;;;;;;;;;4993304;28;20430;-66
2021/09/18 04:33:02;;;;;;;11.80;8.75;;;;;;;;;;4993464;28;20053;-65
2021/09/18 04:35:29;;;;;;;14.13;9.40;;;;;;;;;;4993284;28;20058;-66
2021/09/18 04:37:56;;;;;;;10.65;8.60;;;;;;;;;;4993243;28;20060;-66
2021/09/18 04:40:23;;;;;;;11.70;9.48;;;;;;;;;;4993096;28;20477;-66
2021/09/18 04:42:49;;;;;;;13.77;8.63;;;;;;;;;;4993199;28;20521;-66
2021/09/18 04:45:16;;;;;;;11.23;9.07;;;;;;;;;;4993150;28;20069;-65
2021/09/18 04:47:43;;;;;;;13.40;8.60;;;;;;;;;;4975989;28;20419;-65
2021/09/18 04:50:10;;;;;;;9.68;8.05;;;;;;;;;;4993025;28;20417;-65
2021/09/18 04:52:36;;;;;;;13.00;8.60;;;;;;;;;;4993016;28;20058;-65
2021/09/18 04:55:04;;;;;;;13.80;8.57;;;;;;;;;;4993107;28;20231;-67
2021/09/18 04:57:31;;;;;;;10.98;9.05;;;;;;;;;;4992995;28;20492;-66
2021/09/18 04:59:57;;;;;;;9.75;8.18;;;;;;;;;;4992421;28;20057;-66
2021/09/18 05:02:24;;;;;;;14.07;8.55;;;;;;;;;;4975730;28;20061;-66
2021/09/18 05:04:51;;;;;;;10.15;8.35;;;;;;;;;;4992648;28;20064;-66
2021/09/18 05:07:18;;;;;;;13.02;8.45;;;;;;;;;;4992894;28;20065;-66
2021/09/18 05:09:44;;;;;;;11.25;9.15;;;;;;;;;;4992488;28;20061;-66
2021/09/18 05:12:11;;;;;;;10.68;8.02;;;;;;;;;;4992885;28;20054;-66
2021/09/18 05:14:37;;;;;;;10.90;7.90;;;;;;;;;;4992460;28;20065;-66
2021/09/18 05:17:04;;;;;;;10.60;7.85;;;;;;;;;;4992614;28;20136;-66
2021/09/18 05:19:31;;;;;;;10.38;8.05;;;;;;;;;;4992768;28;20058;-65
2021/09/18 05:21:57;;;;;;;12.05;7.60;;;;;;;;;;4992676;28;20051;-65
2021/09/18 05:24:25;;;;;;;8.00;7.20;;;;;;;;;;4992857;28;20402;-65
2021/09/18 05:26:52;;;;;;;9.18;7.68;;;;;;;;;;4992552;28;20062;-65
2021/09/18 05:29:18;;;;;;;8.40;7.57;;;;;;;;;;4992458;28;20054;-66
2021/09/18 05:31:45;;;;;;;8.45;7.35;;;;;;;;;;4992460;28;20417;-66
2021/09/18 05:34:12;;;;;;;8.10;7.30;;;;;;;;;;4992537;28;20050;-66
2021/09/18 05:36:38;;;;;;;9.25;7.75;;;;;;;;;;4992411;28;20068;-66
2021/09/18 05:39:05;;;;;;;9.10;7.93;;;;;;;;;;4992347;28;20062;-65
2021/09/18 05:41:32;;;;;;;10.45;7.78;;;;;;;;;;4992326;28;20046;-66
2021/09/18 05:43:58;;;;;;;9.98;7.78;;;;;;;;;;4975039;28;20058;-65
2021/09/18 05:46:25;;;;;;;9.63;8.60;;;;;;;;;;4992297;28;20637;-65
2021/09/18 05:48:52;;;;;;;10.43;9.32;;;;;;;;;;4992158;28;20470;-66
2021/09/18 05:51:18;;;;;;;9.50;8.50;;;;;;;;;;4992764;28;20121;-66
2021/09/18 05:53:45;;;;;;;9.82;8.55;;;;;;;;;;4992006;28;20568;-66
2021/09/18 05:56:12;;;;;;;10.00;8.30;;;;;;;;;;4992199;28;20050;-65
2021/09/18 05:58:38;;;;;;;10.50;8.00;;;;;;;;;;4974802;28;20125;-66
2021/09/18 06:01:05;;;;;;;10.38;8.88;;;;;;;;;;4992025;28;20054;-65
2021/09/18 06:03:32;;;;;;;11.10;8.95;;;;;;;;;;4992057;28;20047;-65
2021/09/18 06:05:59;;;;;;;10.38;8.43;;;;;;;;;;4992773;28;20047;-65
2021/09/18 06:08:27;;;;;;;9.75;8.60;;;;;;;;;;4992891;28;20050;-65
2021/09/18 06:10:54;;;;;;;9.60;8.60;;;;;;;;;;4993856;28;20046;-64
2021/09/18 06:13:20;;;;;;;9.40;8.43;;;;;;;;;;4996737;28;20050;-65
2021/09/18 06:15:47;;;;;;;9.13;8.23;;;;;;;;;;4996584;28;20052;-65
2021/09/18 06:18:14;;;;;;;14.93;8.45;;;;;;;;;;4996365;28;20046;-65
2021/09/18 06:20:40;;;;;;;10.43;8.88;;;;;;;;;;4995717;28;20081;-65
2021/09/18 06:23:07;;;;;;;14.82;9.70;;;;;;;;;;4996043;28;20050;-65
2021/09/18 06:25:34;;;;;;;13.20;9.80;;;;;;;;;;5017824;23;20535;-67
2021/09/18 06:28:00;;;;;;;15.52;9.30;;;;;;;;;;4995687;28;20050;-67
2021/09/18 06:30:27;;;;;;;15.90;10.18;;;;;;;;;;4995832;28;20054;-67
2021/09/18 06:32:54;;;;;;;12.27;9.95;;;;;;;;;;4995569;28;20519;-67
2021/09/18 06:35:20;;;;;;;13.32;10.27;;;;;;;;;;4995510;28;20050;-67
2021/09/18 06:37:48;;;;;;;15.45;11.05;;;;;;;;;;4995467;28;20054;-67
2021/09/18 06:40:17;;;;;;;13.63;10.93;;;;;;;;;;4995214;28;20141;-67
2021/09/18 06:42:44;;;;;;;11.50;10.30;;;;;;;;;;4995359;28;20053;-67
2021/09/18 06:45:11;;;;;;;12.60;10.57;;;;;;;;;;4995523;28;20055;-67
2021/09/18 06:47:38;;;;;;;14.43;12.02;;;;;;;;;;4995365;28;20050;-67
2021/09/18 06:50:06;;;;;;;14.43;11.20;;;;;;;;;;4995251;28;20050;-67
2021/09/18 06:52:33;;;;;;;15.35;12.30;;;;;;;;;;4995156;28;20084;-67
2021/09/18 06:55:00;;;;;;;15.50;11.95;;;;;;;;;;4995306;28;20061;-68
2021/09/18 06:57:27;;;;;;;15.13;12.20;;;;;;;;;;4995230;28;20073;-67
2021/09/18 06:59:53;;;;;;;15.95;12.95;;;;;;;;;;4994983;28;20061;-67
2021/09/18 07:02:20;;;;;;;15.25;12.55;;;;;;;;;;4995023;28;20490;-67
2021/09/18 07:04:48;;;;;;;17.35;12.55;;;;;;;;;;4994891;28;20121;-67
2021/09/18 07:07:14;;;;;;;21.85;14.52;;;;;;;;;;4994974;28;20137;-67
2021/09/18 07:09:41;;;;;;;13.93;11.82;;;;;;;;;;4994619;28;20496;-68
2021/09/18 07:12:08;;;;;;;16.20;12.88;;;;;;;;;;4994948;28;20053;-68
2021/09/18 07:14:35;;;;;;;18.23;13.55;;;;;;;;;;4994798;28;20071;-67
2021/09/18 07:17:02;;;;;;;17.00;13.70;;;;;;;;;;4994973;28;20046;-68
2021/09/18 07:19:28;;;;;;;19.50;13.35;;;;;;;;;;4994721;28;20133;-67
2021/09/18 07:21:55;;;;;;;21.75;13.00;;;;;;;;;;4993356;28;20057;-68
2021/09/18 07:24:22;;;;;;;18.13;13.38;;;;;;;;;;4994384;28;20431;-68
2021/09/18 07:26:49;;;;;;;17.17;12.43;;;;;;;;;;4994542;28;20050;-69
2021/09/18 07:29:15;;;;;;;13.93;12.40;;;;;;;;;;4994714;28;20678;-69
2021/09/18 07:31:42;;;;;;;14.70;12.13;;;;;;;;;;4994404;28;20402;-69
2021/09/18 07:34:09;;;;;;;15.07;12.55;;;;;;;;;;4993824;28;20506;-68
2021/09/18 07:36:35;;;;;;;13.02;11.63;;;;;;;;;;4992447;28;20076;-69
2021/09/18 07:39:02;;;;;;;13.40;12.00;;;;;;;;;;4994249;28;20416;-68
2021/09/18 07:41:29;;;;;;;13.02;11.55;;;;;;;;;;4993850;28;20497;-69
2021/09/18 07:44:00;;;;;;;13.45;12.05;;;;;;;;;;4994065;28;20691;-69
2021/09/18 07:46:28;;;;;;;12.80;11.25;;;;;;;;;;4977723;28;20141;-69
2021/09/18 07:48:55;;;;;;;16.80;11.75;;;;;;;;;;4994067;28;20054;-68
2021/09/18 07:51:22;;;;;;;12.13;10.82;;;;;;;;;;4994033;28;20482;-68
2021/09/18 07:53:48;;;;;;;12.77;11.48;;;;;;;;;;4992234;28;20054;-68
2021/09/18 07:56:16;;;;;;;13.30;11.30;;;;;;;;;;4993795;28;20076;-69
2021/09/18 07:58:42;;;;;;;11.70;10.48;;;;;;;;;;4992983;28;20155;-69
2021/09/18 08:01:09;;;;;;;12.40;11.20;;;;;;;;;;4982222;28;20125;-69
2021/09/18 08:03:36;;;;;;;12.02;10.25;;;;;;;;;;4993465;28;20039;-69
2021/09/18 08:06:04;;;;;;;12.13;10.93;;;;;;;;;;4993345;28;20176;-68
2021/09/18 08:08:31;;;;;;;13.40;9.98;;;;;;;;;;4976223;28;20046;-68
2021/09/18 08:10:57;;;;;;;12.95;11.20;;;;;;;;;;4993470;28;20042;-68
2021/09/18 08:13:24;;;;;;;12.18;10.85;;;;;;;;;;4993572;28;20141;-68
2021/09/18 08:15:51;;;;;;;11.50;10.25;;;;;;;;;;4993188;28;20070;-68
2021/09/18 08:18:17;;;;;;;11.02;9.90;;;;;;;;;;4993315;28;20050;-68
2021/09/18 08:20:44;;;;;;;11.43;10.23;;;;;;;;;;4975602;28;20104;-68
2021/09/18 08:23:11;;;;;;;10.65;9.55;;;;;;;;;;4993147;28;20047;-68
2021/09/18 08:25:38;;;;;;;11.30;10.20;;;;;;;;;;4992985;28;20054;-69
2021/09/18 08:28:04;;;;;;;11.73;10.63;;;;;;;;;;4992919;28;20050;-68
2021/09/18 08:30:31;;;;;;;11.82;9.75;;;;;;;;;;4992723;28;20042;-69
2021/09/18 08:32:58;;;;;;;9.93;8.93;;;;;;;;;;4992660;28;20129;-69
2021/09/18 08:35:25;;;;;;;11.30;9.30;;;;;;;;;;4992925;28;20046;-69
2021/09/18 08:37:51;;;;;;;11.75;10.18;;;;;;;;;;4992817;28;20501;-68
2021/09/18 08:40:18;;;;;;;11.10;10.02;;;;;;;;;;4992712;28;20058;-68
2021/09/18 08:42:45;;;;;;;11.05;9.82;;;;;;;;;;4992669;28;20074;-68
2021/09/18 08:45:13;;;;;;;11.63;8.90;;;;;;;;;;4992688;28;20050;-69
2021/09/18 08:47:42;;;;;;;9.63;8.73;;;;;;;;;;4992825;28;20133;-69
2021/09/18 08:50:13;;;;;;;8.98;8.05;;;;;;;;;;4992981;28;20420;-69
2021/09/18 08:52:40;;;;;;;10.25;9.15;;;;;;;;;;4993041;28;20416;-68
2021/09/18 08:55:08;;;;;;;14.75;9.57;;;;;;;;;;4975809;28;20050;-69
2021/09/18 08:57:34;;;;;;;10.68;8.93;;;;;;;;;;4993040;28;20050;-67
2021/09/18 09:00:03;;;;;;;10.30;9.30;;;;;;;;;;4992688;28;20050;-68
2021/09/18 09:02:31;;;;;;;12.88;9.48;;;;;;;;;;4992792;28;20046;-68
2021/09/18 09:05:06;;;;;;;9.70;8.60;;;;;;;;;;4992749;28;20109;-69
2021/09/18 09:07:33;;;;;;;9.65;8.65;;;;;;;;;;4992853;28;20050;-69
2021/09/18 09:10:03;;;;;;;10.05;8.63;;;;;;;;;;4992625;28;20050;-69
2021/09/18 09:12:34;;;;;;;9.10;8.20;;;;;;;;;;4992717;28;20493;-68
2021/09/18 09:15:05;;;;;;;9.30;8.05;;;;;;;;;;4992592;28;20062;-68
2021/09/18 09:17:33;;;;;;;10.75;7.43;;;;;;;;;;4992748;28;20049;-69
2021/09/18 09:20:00;;;;;;;8.52;7.57;;;;;;;;;;4992412;28;20046;-68
2021/09/18 09:22:44;;;;;;;7.53;6.72;;;;;;;;;;4992618;28;20057;-69
2021/09/18 09:25:30;;;;;;;7.13;5.90;;;;;;;;;;4992354;28;20050;-68
2021/09/18 09:27:58;;;;;;;6.97;5.72;;;;;;;;;;4992501;28;20051;-68
2021/09/18 09:30:29;;;;;;;8.30;6.47;;;;;;;;;;4975326;28;20054;-69
2021/09/18 09:33:04;;;;;;;9.02;7.60;;;;;;;;;;4992294;28;20050;-69
2021/09/18 09:35:31;;;;;;;9.50;7.90;;;;;;;;;;4992614;28;20061;-69
2021/09/18 09:37:57;;;;;;;8.40;5.93;;;;;;;;;;4992717;28;20058;-69
2021/09/18 09:40:37;;;;;;;7.10;5.50;;;;;;;;;;4992208;28;20106;-69
2021/09/18 09:43:06;;;;;;;6.15;4.90;;;;;;;;;;4991734;28;20042;-69
2021/09/18 09:45:33;;;;;;;5.70;4.57;;;;;;;;;;4991034;28;20050;-69
2021/09/18 09:48:08;;;;;;;6.60;5.05;;;;;;;;;;4991845;28;20486;-69
2021/09/18 09:50:36;;;;;;;6.78;5.82;;;;;;;;;;4991662;28;20050;-69
2021/09/18 09:53:03;;;;;;;6.60;6.00;;;;;;;;;;4972054;28;20136;-69
2021/09/18 09:55:37;;;;;;;5.63;5.13;;;;;;;;;;4991863;28;20054;-69
2021/09/18 09:58:07;;;;;;;5.75;5.15;;;;;;;;;;4984134;28;20054;-69
2021/09/18 10:00:46;;;;;;;5.45;4.95;;;;;;;;;;4979285;28;20100;-69
2021/09/18 10:03:13;;;;;;;5.57;4.90;;;;;;;;;;4991917;28;20081;-69
2021/09/18 10:05:41;;;;;;;5.50;4.38;;;;;;;;;;4992085;28;20050;-69
2021/09/18 10:08:07;;;;;;;4.38;3.97;;;;;;;;;;4992362;28;20105;-69
2021/09/18 10:10:34;;;;;;;5.60;4.75;;;;;;;;;;4974939;28;20138;-69
2021/09/18 10:13:01;;;;;;;8.25;5.55;;;;;;;;;;4974949;28;20090;-68
2021/09/18 10:15:29;;;;;;;4.72;4.20;;;;;;;;;;4975071;28;20051;-69
2021/09/18 10:17:57;;;;;;;5.00;4.03;;;;;;;;;;4991926;28;20062;-68
2021/09/18 10:25:40;;;;;;;5.07;4.10;;;;;;;;;;4963750;28;20516;-68
2021/09/18 10:28:40;;;;;;;3.60;3.13;;;;;;;;;;4992012;28;20050;-69
2021/09/18 10:31:12;;;;;;;3.50;2.28;;;;;;;;;;4960914;28;20093;-69
2021/09/18 10:33:41;;;;;;;3.92;1.90;;;;;;;;;;4991927;28;20050;-69
2021/09/18 10:36:13;;;;;;;1.90;1.60;;;;;;;;;;4991980;28;20065;-68
2021/09/18 10:38:43;;;;;;;4.68;2.60;;;;;;;;;;4991653;28;20050;-69
2021/09/18 10:41:11;;;;;;;2.28;2.08;;;;;;;;;;4974638;28;20046;-69
2021/09/18 10:43:39;;;;;;;2.28;1.90;;;;;;;;;;4991765;28;20062;-68
2021/09/18 10:46:07;;;;;;;2.20;2.00;;;;;;;;;;4991886;28;20062;-68
2021/09/18 10:48:42;;;;;;;3.70;2.03;;;;;;;;;;4991744;28;20516;-69
2021/09/18 10:51:39;;;;;;;2.70;2.50;;;;;;;;;;4991832;28;20425;-69
2021/09/18 10:54:15;;;;;;;7.20;2.80;;;;;;;;;;4991644;28;20050;-69
2021/09/18 10:56:54;;;;;;;3.38;2.97;;;;;;;;;;4992795;28;20489;-68
2021/09/18 10:59:53;;;;;;;2.75;2.45;;;;;;;;;;4995839;28;20113;-68
2021/09/18 11:02:34;;;;;;;3.80;2.95;;;;;;;;;;4952347;28;20501;-69
2021/09/18 11:05:06;;;;;;;3.30;2.93;;;;;;;;;;4995018;28;20051;-68
2021/09/18 11:07:50;;;;;;;2.83;2.63;;;;;;;;;;4994993;28;20278;-68
2021/09/18 11:10:20;;;;;;;3.33;2.72;;;;;;;;;;4994990;28;20061;-69
2021/09/18 11:13:11;;;;;;;3.90;2.60;;;;;;;;;;4994916;28;20109;-68
2021/09/18 11:15:48;;;;;;;3.13;2.15;;;;;;;;;;4994833;28;20101;-68
2021/09/18 11:18:37;;;;;;;2.78;2.58;;;;;;;;;;4977601;28;20054;-69
2021/09/18 11:21:10;;;;;;;3.95;3.10;;;;;;;;;;4994847;28;20062;-68
2021/09/18 11:23:41;;;;;;;;;;;;;;;;;;4995176;28;20043;-69
2021/09/18 11:26:41;;;;;;;3.40;3.00;;;;;;;;;;4994599;28;19922;-68
2021/09/18 11:29:16;;;;;;;4.82;3.05;;;;;;;;;;4994542;28;20494;-68
2021/09/18 11:32:01;;;;;;;3.30;3.00;;;;;;;;;;4994498;28;20201;-68
2021/09/18 11:34:34;;;;;;;3.47;2.38;;;;;;;;;;4994629;28;20081;-68
2021/09/18 11:37:02;;;;;;;3.35;2.55;;;;;;;;;;4994653;28;20054;-68
2021/09/18 11:39:36;;;;;;;2.50;2.30;;;;;;;;;;4977140;28;20058;-68
2021/09/18 11:42:15;;;;;;;2.40;2.20;;;;;;;;;;4994466;28;20050;-69
2021/09/18 11:44:43;;;;;;;2.05;1.95;;;;;;;;;;4994524;28;20105;-69
2021/09/18 11:47:10;;;;;;;2.28;2.08;;;;;;;;;;4994386;28;20050;-69
2021/09/18 11:49:37;;;;;;;3.22;1.90;;;;;;;;;;4994295;28;20050;-69
2021/09/18 11:52:05;;;;;;;2.30;2.10;;;;;;;;;;4976852;28;20395;-69
2021/09/18 11:54:32;;;;;;;3.08;2.78;;;;;;;;;;4994218;28;20101;-69
2021/09/18 11:57:18;;;;;;;3.20;2.90;;;;;;;;;;4994123;28;20127;-69
2021/09/18 11:59:45;;;;;;;3.83;2.92;;;;;;;;;;4993904;28;20050;-69
2021/09/18 12:02:12;;;;;;;2.88;2.60;;;;;;;;;;4994083;28;20390;-69
2021/09/18 12:04:43;;;;;;;4.40;2.90;;;;;;;;;;4994028;28;20050;-68
2021/09/18 12:07:11;;;;;;;4.18;3.00;;;;;;;;;;4994260;28;20054;-69
2021/09/18 12:09:38;;;;;;;3.05;2.80;;;;;;;;;;4992908;28;20469;-68
2021/09/18 12:12:04;;;;;;;3.40;3.10;;;;;;;;;;4976880;28;20104;-69
2021/09/18 12:14:36;;;;;;;3.30;2.90;;;;;;;;;;4993863;28;20493;-69
2021/09/18 12:17:17;;;;;;;3.88;3.15;;;;;;;;;;4993914;28;20108;-68
2021/09/18 12:19:45;;;;;;;3.13;2.75;;;;;;;;;;4993528;28;20108;-69
2021/09/18 12:22:13;;;;;;;4.43;2.88;;;;;;;;;;4976467;28;20042;-69
2021/09/18 12:24:41;;;;;;;3.95;3.00;;;;;;;;;;4993917;28;20054;-69
2021/09/18 12:27:28;;;;;;;5.60;2.50;;;;;;;;;;4993711;28;20563;-69
2021/09/18 12:30:15;;;;;;;2.50;2.30;;;;;;;;;;4993356;28;20583;-69
2021/09/18 12:32:42;;;;;;;2.58;2.33;;;;;;;;;;4993366;28;20046;-69
2021/09/18 12:35:10;;;;;;;2.45;2.25;;;;;;;;;;4993379;28;20108;-69
2021/09/18 12:37:41;;;;;;;2.60;2.05;;;;;;;;;;4993324;28;20497;-70
2021/09/18 12:40:14;;;;;;;2.83;2.50;;;;;;;;;;4993304;28;20498;-70
2021/09/18 12:42:40;;;;;;;2.50;2.25;;;;;;;;;;4975871;28;20046;-70
2021/09/18 12:45:21;;;;;;;1.83;1.67;;;;;;;;;;4993273;28;20046;-70
2021/09/18 12:47:47;;;;;;;2.20;2.08;;;;;;;;;;4993114;28;20104;-70
2021/09/18 12:50:18;;;;;;;2.30;2.10;;;;;;;;;;4992907;28;20484;-70
2021/09/18 12:52:44;;;;;;;2.67;2.47;;;;;;;;;;4993050;28;20116;-70
2021/09/18 12:55:11;;;;;;;2.92;1.90;;;;;;;;;;4992974;28;20050;-70
2021/09/18 12:57:38;;;;;;;3.60;2.20;;;;;;;;;;4993137;28;20050;-70
2021/09/18 13:00:09;;;;;;;1.90;1.80;;;;;;;;;;4992758;28;20069;-69
2021/09/18 13:02:36;;;;;;;2.72;2.03;;;;;;;;;;4992854;28;20046;-70
2021/09/18 13:05:03;;;;;;;1.85;1.75;;;;;;;;;;4992668;28;20057;-70
2021/09/18 13:07:30;;;;;;;2.30;1.90;;;;;;;;;;4992863;28;20513;-70
2021/09/18 13:09:59;;;;;;;3.17;2.05;;;;;;;;;;4992620;28;20053;-70
2021/09/18 13:12:26;;;;;;;1.90;1.73;;;;;;;;;;4992776;28;20054;-70
2021/09/18 13:14:57;;;;;;;1.80;1.70;;;;;;;;;;4992629;28;20455;-70
2021/09/18 13:17:24;;;;;;;3.40;1.63;;;;;;;;;;4992654;28;20050;-70
2021/09/18 13:20:03;;;;;;;2.72;2.08;;;;;;;;;;4992283;28;20285;-70
2021/09/18 13:22:31;;;;;;;3.10;2.00;;;;;;;;;;4976131;28;20046;-70
2021/09/18 13:24:58;;;;;;;2.35;2.10;;;;;;;;;;4992691;28;20060;-70
2021/09/18 13:27:27;;;;;;;2.60;2.40;;;;;;;;;;4975413;28;20055;-70
2021/09/18 13:29:54;;;;;;;2.95;2.28;;;;;;;;;;4992489;28;20093;-70
2021/09/18 13:32:21;;;;;;;2.75;2.13;;;;;;;;;;4992575;28;20498;-69
2021/09/18 13:34:48;;;;;;;2.88;2.15;;;;;;;;;;4992425;28;20574;-69
2021/09/18 13:37:15;;;;;;;2.40;2.20;;;;;;;;;;4992562;28;20398;-69
2021/09/18 13:39:42;;;;;;;3.10;2.67;;;;;;;;;;4992199;28;20109;-69
2021/09/18 13:42:09;;;;;;;3.05;2.40;;;;;;;;;;4992433;28;20049;-69
2021/09/18 13:44:36;;;;;;;2.75;2.55;;;;;;;;;;4992301;28;20054;-69
2021/09/18 13:47:04;;;;;;;3.00;2.70;;;;;;;;;;4992343;28;20073;-69
2021/09/18 13:49:30;;;;;;;2.58;2.42;;;;;;;;;;4992160;28;20054;-69
2021/09/18 13:51:58;;;;;;;3.63;3.25;;;;;;;;;;4992230;28;20058;-69
2021/09/18 13:54:26;;;;;;;3.83;2.75;;;;;;;;;;4959094;28;20113;-69
2021/09/18 13:56:52;;;;;;;2.78;2.47;;;;;;;;;;4992164;28;20509;-69
2021/09/18 13:59:19;;;;;;;3.15;2.65;;;;;;;;;;4992113;28;20468;-69
2021/09/18 14:01:46;;;;;;;3.17;2.42;;;;;;;;;;4992063;28;20062;-69
2021/09/18 14:04:12;;;;;;;2.88;2.55;;;;;;;;;;4974824;28;20054;-69
2021/09/18 14:06:39;;;;;;;2.92;2.35;;;;;;;;;;4992133;28;20051;-69
2021/09/18 14:09:07;;;;;;;2.92;2.60;;;;;;;;;;4992101;28;20051;-69
2021/09/18 14:11:35;;;;;;;2.67;2.40;;;;;;;;;;4992079;28;20050;-69
2021/09/18 14:14:04;;;;;;;3.05;2.30;;;;;;;;;;4974732;28;20104;-69
2021/09/18 14:16:30;;;;;;;2.83;2.50;;;;;;;;;;4975132;28;20050;-69
2021/09/18 14:18:57;;;;;;;3.15;2.50;;;;;;;;;;4991929;28;20055;-69
2021/09/18 14:21:24;;;;;;;2.58;2.28;;;;;;;;;;4992045;28;20109;-69
2021/09/18 14:23:50;;;;;;;2.40;2.20;;;;;;;;;;4991823;28;20054;-69
2021/09/18 14:26:17;;;;;;;2.42;2.00;;;;;;;;;;4991964;28;20406;-69
2021/09/18 14:28:44;;;;;;;2.35;2.15;;;;;;;;;;4991795;28;20054;-69
2021/09/18 14:31:11;;;;;;;2.45;2.25;;;;;;;;;;4974968;28;20059;-69
2021/09/18 14:33:38;;;;;;;2.58;2.00;;;;;;;;;;4978363;28;20093;-69
2021/09/18 14:36:05;;;;;;;2.67;2.17;;;;;;;;;;4995711;28;20050;-70
2021/09/18 14:38:32;;;;;;;2.38;2.17;;;;;;;;;;4995678;28;20050;-69
2021/09/18 14:40:59;;;;;;;3.00;2.15;;;;;;;;;;4995345;28;20125;-69
2021/09/18 14:43:25;;;;;;;2.20;2.00;;;;;;;;;;4995500;28;20097;-69
2021/09/18 14:45:52;;;;;;;2.67;2.40;;;;;;;;;;4995309;28;20050;-69
2021/09/18 14:48:18;;;;;;;3.25;2.40;;;;;;;;;;4995549;28;20473;-69